sensor_id;sensor_type;location;lat;lon;timestamp;P1;durP1;ratioP1;P2;durP2;ratioP2
62709;SDS011;48770;51.624;5.886;2023-04-21T00:00:49;0.50;;;0.50;;
62709;SDS011;48770;51.624;5.886;2023-04-21T00:03:15;0.40;;;0.40;;
62709;SDS011;48770;51.624;5.886;2023-04-21T00:05:41;0.70;;;0.40;;
62709;SDS011;48770;51.624;5.886;2023-04-21T00:08:07;0.40;;;0.40;;
62709;SDS011;48770;51.624;5.886;2023-04-21T00:10:33;1.13;;;0.40;;
62709;SDS011;48770;51.624;5.886;2023-04-21T00:12:58;0.47;;;0.40;;
62709;SDS011;48770;51.624;5.886;2023-04-21T00:15:24;0.50;;;0.50;;
62709;SDS011;48770;51.624;5.886;2023-04-21T00:17:49;0.40;;;0.40;;
62709;SDS011;48770;51.624;5.886;2023-04-21T00:20:14;0.40;;;0.40;;
62709;SDS011;48770;51.624;5.886;2023-04-21T00:22:43;0.30;;;0.30;;
62709;SDS011;48770;51.624;5.886;2023-04-21T00:25:08;0.55;;;0.47;;
62709;SDS011;48770;51.624;5.886;2023-04-21T00:27:34;0.60;;;0.40;;
62709;SDS011;48770;51.624;5.886;2023-04-21T00:30:00;0.40;;;0.40;;
62709;SDS011;48770;51.624;5.886;2023-04-21T00:32:25;0.73;;;0.50;;
62709;SDS011;48770;51.624;5.886;2023-04-21T00:34:51;0.50;;;0.40;;
62709;SDS011;48770;51.624;5.886;2023-04-21T00:37:16;0.40;;;0.40;;
62709;SDS011;48770;51.624;5.886;2023-04-21T00:39:41;1.05;;;0.50;;
62709;SDS011;48770;51.624;5.886;2023-04-21T00:42:07;0.47;;;0.47;;
62709;SDS011;48770;51.624;5.886;2023-04-21T00:44:32;0.43;;;0.40;;
62709;SDS011;48770;51.624;5.886;2023-04-21T00:46:57;0.57;;;0.40;;
62709;SDS011;48770;51.624;5.886;2023-04-21T00:49:23;0.55;;;0.50;;
62709;SDS011;48770;51.624;5.886;2023-04-21T00:51:49;0.40;;;0.40;;
62709;SDS011;48770;51.624;5.886;2023-04-21T00:54:16;0.73;;;0.40;;
62709;SDS011;48770;51.624;5.886;2023-04-21T00:56:42;0.50;;;0.50;;
62709;SDS011;48770;51.624;5.886;2023-04-21T00:59:08;0.40;;;0.40;;
62709;SDS011;48770;51.624;5.886;2023-04-21T01:01:33;0.30;;;0.22;;
62709;SDS011;48770;51.624;5.886;2023-04-21T01:04:00;0.50;;;0.50;;
62709;SDS011;48770;51.624;5.886;2023-04-21T01:06:30;0.30;;;0.30;;
62709;SDS011;48770;51.624;5.886;2023-04-21T01:08:58;0.50;;;0.40;;
62709;SDS011;48770;51.624;5.886;2023-04-21T01:11:23;0.47;;;0.40;;
62709;SDS011;48770;51.624;5.886;2023-04-21T01:13:51;0.55;;;0.45;;
62709;SDS011;48770;51.624;5.886;2023-04-21T01:16:18;0.35;;;0.35;;
62709;SDS011;48770;51.624;5.886;2023-04-21T01:18:44;0.63;;;0.40;;
62709;SDS011;48770;51.624;5.886;2023-04-21T01:21:10;0.60;;;0.50;;
62709;SDS011;48770;51.624;5.886;2023-04-21T01:23:37;0.38;;;0.35;;
62709;SDS011;48770;51.624;5.886;2023-04-21T01:26:03;0.80;;;0.60;;
62709;SDS011;48770;51.624;5.886;2023-04-21T01:28:30;0.30;;;0.30;;
62709;SDS011;48770;51.624;5.886;2023-04-21T01:30:55;0.40;;;0.40;;
62709;SDS011;48770;51.624;5.886;2023-04-21T01:33:21;0.40;;;0.40;;
62709;SDS011;48770;51.624;5.886;2023-04-21T01:35:47;0.75;;;0.30;;
62709;SDS011;48770;51.624;5.886;2023-04-21T01:38:12;0.82;;;0.40;;
62709;SDS011;48770;51.624;5.886;2023-04-21T01:40:42;0.30;;;0.22;;
62709;SDS011;48770;51.624;5.886;2023-04-21T01:43:10;0.40;;;0.40;;
62709;SDS011;48770;51.624;5.886;2023-04-21T01:45:36;0.40;;;0.40;;
62709;SDS011;48770;51.624;5.886;2023-04-21T01:48:01;0.52;;;0.52;;
62709;SDS011;48770;51.624;5.886;2023-04-21T01:50:27;0.60;;;0.50;;
62709;SDS011;48770;51.624;5.886;2023-04-21T01:52:52;0.57;;;0.50;;
62709;SDS011;48770;51.624;5.886;2023-04-21T01:55:17;0.30;;;0.30;;
62709;SDS011;48770;51.624;5.886;2023-04-21T01:57:43;0.52;;;0.40;;
62709;SDS011;48770;51.624;5.886;2023-04-21T02:00:08;0.30;;;0.30;;
62709;SDS011;48770;51.624;5.886;2023-04-21T02:02:34;0.68;;;0.50;;
62709;SDS011;48770;51.624;5.886;2023-04-21T02:04:59;1.17;;;0.40;;
62709;SDS011;48770;51.624;5.886;2023-04-21T02:07:24;0.50;;;0.40;;
62709;SDS011;48770;51.624;5.886;2023-04-21T02:09:50;0.52;;;0.52;;
62709;SDS011;48770;51.624;5.886;2023-04-21T02:12:15;0.40;;;0.40;;
62709;SDS011;48770;51.624;5.886;2023-04-21T02:14:40;0.55;;;0.40;;
62709;SDS011;48770;51.624;5.886;2023-04-21T02:17:06;0.50;;;0.45;;
62709;SDS011;48770;51.624;5.886;2023-04-21T02:19:31;0.63;;;0.63;;
62709;SDS011;48770;51.624;5.886;2023-04-21T02:21:57;0.52;;;0.40;;
62709;SDS011;48770;51.624;5.886;2023-04-21T02:24:22;0.50;;;0.50;;
62709;SDS011;48770;51.624;5.886;2023-04-21T02:26:48;0.40;;;0.40;;
62709;SDS011;48770;51.624;5.886;2023-04-21T02:29:13;0.70;;;0.50;;
62709;SDS011;48770;51.624;5.886;2023-04-21T02:31:38;0.30;;;0.30;;
62709;SDS011;48770;51.624;5.886;2023-04-21T02:34:05;0.40;;;0.40;;
62709;SDS011;48770;51.624;5.886;2023-04-21T02:36:30;0.40;;;0.40;;
62709;SDS011;48770;51.624;5.886;2023-04-21T02:38:56;0.43;;;0.43;;
62709;SDS011;48770;51.624;5.886;2023-04-21T02:41:21;0.68;;;0.60;;
62709;SDS011;48770;51.624;5.886;2023-04-21T02:43:47;0.40;;;0.40;;
62709;SDS011;48770;51.624;5.886;2023-04-21T02:46:12;0.20;;;0.20;;
62709;SDS011;48770;51.624;5.886;2023-04-21T02:48:38;0.75;;;0.38;;
62709;SDS011;48770;51.624;5.886;2023-04-21T02:51:03;0.40;;;0.40;;
62709;SDS011;48770;51.624;5.886;2023-04-21T02:53:28;0.75;;;0.50;;
62709;SDS011;48770;51.624;5.886;2023-04-21T02:55:54;0.40;;;0.40;;
62709;SDS011;48770;51.624;5.886;2023-04-21T02:58:20;0.50;;;0.50;;
62709;SDS011;48770;51.624;5.886;2023-04-21T03:00:46;0.38;;;0.32;;
62709;SDS011;48770;51.624;5.886;2023-04-21T03:03:11;0.47;;;0.32;;
62709;SDS011;48770;51.624;5.886;2023-04-21T03:05:38;0.35;;;0.35;;
62709;SDS011;48770;51.624;5.886;2023-04-21T03:08:04;0.60;;;0.60;;
62709;SDS011;48770;51.624;5.886;2023-04-21T03:10:29;0.50;;;0.45;;
62709;SDS011;48770;51.624;5.886;2023-04-21T03:12:55;0.60;;;0.57;;
62709;SDS011;48770;51.624;5.886;2023-04-21T03:15:20;0.60;;;0.60;;
62709;SDS011;48770;51.624;5.886;2023-04-21T03:17:46;0.40;;;0.40;;
62709;SDS011;48770;51.624;5.886;2023-04-21T03:20:11;0.52;;;0.50;;
62709;SDS011;48770;51.624;5.886;2023-04-21T03:22:37;0.50;;;0.40;;
62709;SDS011;48770;51.624;5.886;2023-04-21T03:25:03;0.40;;;0.38;;
62709;SDS011;48770;51.624;5.886;2023-04-21T03:27:31;0.82;;;0.60;;
62709;SDS011;48770;51.624;5.886;2023-04-21T03:29:57;0.98;;;0.50;;
62709;SDS011;48770;51.624;5.886;2023-04-21T03:32:22;0.57;;;0.50;;
62709;SDS011;48770;51.624;5.886;2023-04-21T03:34:48;0.82;;;0.40;;
62709;SDS011;48770;51.624;5.886;2023-04-21T03:37:14;0.60;;;0.47;;
62709;SDS011;48770;51.624;5.886;2023-04-21T03:39:39;0.70;;;0.50;;
62709;SDS011;48770;51.624;5.886;2023-04-21T03:42:04;0.57;;;0.50;;
62709;SDS011;48770;51.624;5.886;2023-04-21T03:44:30;0.40;;;0.40;;
62709;SDS011;48770;51.624;5.886;2023-04-21T03:46:55;0.38;;;0.30;;
62709;SDS011;48770;51.624;5.886;2023-04-21T03:49:21;0.52;;;0.50;;
62709;SDS011;48770;51.624;5.886;2023-04-21T03:51:47;0.65;;;0.63;;
62709;SDS011;48770;51.624;5.886;2023-04-21T03:54:12;0.40;;;0.40;;
62709;SDS011;48770;51.624;5.886;2023-04-21T03:56:37;0.55;;;0.55;;
62709;SDS011;48770;51.624;5.886;2023-04-21T03:59:03;0.75;;;0.60;;
62709;SDS011;48770;51.624;5.886;2023-04-21T04:01:28;0.75;;;0.70;;
62709;SDS011;48770;51.624;5.886;2023-04-21T04:03:54;0.40;;;0.40;;
62709;SDS011;48770;51.624;5.886;2023-04-21T04:06:19;0.50;;;0.50;;
62709;SDS011;48770;51.624;5.886;2023-04-21T04:08:45;0.57;;;0.50;;
62709;SDS011;48770;51.624;5.886;2023-04-21T04:11:10;0.77;;;0.45;;
62709;SDS011;48770;51.624;5.886;2023-04-21T04:13:35;0.50;;;0.50;;
62709;SDS011;48770;51.624;5.886;2023-04-21T04:16:01;0.57;;;0.55;;
62709;SDS011;48770;51.624;5.886;2023-04-21T04:18:26;0.30;;;0.30;;
62709;SDS011;48770;51.624;5.886;2023-04-21T04:20:51;0.55;;;0.55;;
62709;SDS011;48770;51.624;5.886;2023-04-21T04:23:17;0.65;;;0.65;;
62709;SDS011;48770;51.624;5.886;2023-04-21T04:25:42;0.50;;;0.50;;
62709;SDS011;48770;51.624;5.886;2023-04-21T04:28:07;0.63;;;0.40;;
62709;SDS011;48770;51.624;5.886;2023-04-21T04:30:33;0.60;;;0.60;;
62709;SDS011;48770;51.624;5.886;2023-04-21T04:32:59;0.50;;;0.50;;
62709;SDS011;48770;51.624;5.886;2023-04-21T04:35:25;0.98;;;0.57;;
62709;SDS011;48770;51.624;5.886;2023-04-21T04:37:50;0.47;;;0.47;;
62709;SDS011;48770;51.624;5.886;2023-04-21T04:40:16;0.50;;;0.50;;
62709;SDS011;48770;51.624;5.886;2023-04-21T04:42:41;0.80;;;0.80;;
62709;SDS011;48770;51.624;5.886;2023-04-21T04:45:07;0.75;;;0.52;;
62709;SDS011;48770;51.624;5.886;2023-04-21T04:47:34;0.63;;;0.55;;
62709;SDS011;48770;51.624;5.886;2023-04-21T04:49:59;0.70;;;0.70;;
62709;SDS011;48770;51.624;5.886;2023-04-21T04:52:25;0.60;;;0.60;;
62709;SDS011;48770;51.624;5.886;2023-04-21T04:54:50;0.60;;;0.60;;
62709;SDS011;48770;51.624;5.886;2023-04-21T04:57:16;0.85;;;0.63;;
62709;SDS011;48770;51.624;5.886;2023-04-21T04:59:41;0.75;;;0.60;;
62709;SDS011;48770;51.624;5.886;2023-04-21T05:02:06;0.60;;;0.60;;
62709;SDS011;48770;51.624;5.886;2023-04-21T05:04:32;0.75;;;0.65;;
62709;SDS011;48770;51.624;5.886;2023-04-21T05:06:58;0.60;;;0.60;;
62709;SDS011;48770;51.624;5.886;2023-04-21T05:09:23;0.70;;;0.60;;
62709;SDS011;48770;51.624;5.886;2023-04-21T05:11:49;0.50;;;0.40;;
62709;SDS011;48770;51.624;5.886;2023-04-21T05:14:15;0.70;;;0.70;;
62709;SDS011;48770;51.624;5.886;2023-04-21T05:16:42;0.60;;;0.50;;
62709;SDS011;48770;51.624;5.886;2023-04-21T05:19:07;0.60;;;0.60;;
62709;SDS011;48770;51.624;5.886;2023-04-21T05:21:33;0.85;;;0.60;;
62709;SDS011;48770;51.624;5.886;2023-04-21T05:23:58;0.50;;;0.50;;
62709;SDS011;48770;51.624;5.886;2023-04-21T05:26:26;2.25;;;0.70;;
62709;SDS011;48770;51.624;5.886;2023-04-21T05:28:56;0.85;;;0.80;;
62709;SDS011;48770;51.624;5.886;2023-04-21T05:31:22;0.60;;;0.60;;
62709;SDS011;48770;51.624;5.886;2023-04-21T05:33:48;0.77;;;0.68;;
62709;SDS011;48770;51.624;5.886;2023-04-21T05:36:14;0.80;;;0.75;;
62709;SDS011;48770;51.624;5.886;2023-04-21T05:38:40;0.73;;;0.70;;
62709;SDS011;48770;51.624;5.886;2023-04-21T05:41:05;0.60;;;0.52;;
62709;SDS011;48770;51.624;5.886;2023-04-21T05:43:30;1.13;;;0.70;;
62709;SDS011;48770;51.624;5.886;2023-04-21T05:45:59;0.50;;;0.50;;
62709;SDS011;48770;51.624;5.886;2023-04-21T05:48:25;0.63;;;0.63;;
62709;SDS011;48770;51.624;5.886;2023-04-21T05:50:50;0.70;;;0.70;;
62709;SDS011;48770;51.624;5.886;2023-04-21T05:53:16;1.00;;;0.70;;
62709;SDS011;48770;51.624;5.886;2023-04-21T05:55:41;0.68;;;0.68;;
62709;SDS011;48770;51.624;5.886;2023-04-21T05:58:07;1.00;;;0.90;;
62709;SDS011;48770;51.624;5.886;2023-04-21T06:00:32;0.50;;;0.50;;
62709;SDS011;48770;51.624;5.886;2023-04-21T06:02:57;0.50;;;0.50;;
62709;SDS011;48770;51.624;5.886;2023-04-21T06:05:23;1.00;;;0.52;;
62709;SDS011;48770;51.624;5.886;2023-04-21T06:07:48;1.98;;;0.80;;
62709;SDS011;48770;51.624;5.886;2023-04-21T06:10:13;0.98;;;0.60;;
62709;SDS011;48770;51.624;5.886;2023-04-21T06:12:41;0.95;;;0.70;;
62709;SDS011;48770;51.624;5.886;2023-04-21T06:15:06;0.90;;;0.80;;
62709;SDS011;48770;51.624;5.886;2023-04-21T06:17:32;0.90;;;0.77;;
62709;SDS011;48770;51.624;5.886;2023-04-21T06:19:57;0.70;;;0.70;;
62709;SDS011;48770;51.624;5.886;2023-04-21T06:22:23;0.88;;;0.80;;
62709;SDS011;48770;51.624;5.886;2023-04-21T06:24:49;0.70;;;0.60;;
62709;SDS011;48770;51.624;5.886;2023-04-21T06:27:14;0.60;;;0.60;;
62709;SDS011;48770;51.624;5.886;2023-04-21T06:29:40;0.68;;;0.68;;
62709;SDS011;48770;51.624;5.886;2023-04-21T06:32:06;0.82;;;0.70;;
62709;SDS011;48770;51.624;5.886;2023-04-21T06:34:32;0.73;;;0.60;;
62709;SDS011;48770;51.624;5.886;2023-04-21T06:36:58;0.65;;;0.65;;
62709;SDS011;48770;51.624;5.886;2023-04-21T06:39:23;0.93;;;0.70;;
62709;SDS011;48770;51.624;5.886;2023-04-21T06:41:48;0.60;;;0.60;;
62709;SDS011;48770;51.624;5.886;2023-04-21T06:44:14;1.10;;;1.00;;
62709;SDS011;48770;51.624;5.886;2023-04-21T06:46:39;0.88;;;0.60;;
62709;SDS011;48770;51.624;5.886;2023-04-21T06:49:06;0.73;;;0.73;;
62709;SDS011;48770;51.624;5.886;2023-04-21T06:51:32;0.88;;;0.65;;
62709;SDS011;48770;51.624;5.886;2023-04-21T06:53:57;0.77;;;0.68;;
62709;SDS011;48770;51.624;5.886;2023-04-21T06:56:22;0.70;;;0.65;;
62709;SDS011;48770;51.624;5.886;2023-04-21T06:58:48;0.50;;;0.50;;
62709;SDS011;48770;51.624;5.886;2023-04-21T07:01:13;0.60;;;0.50;;
62709;SDS011;48770;51.624;5.886;2023-04-21T07:03:38;0.68;;;0.65;;
62709;SDS011;48770;51.624;5.886;2023-04-21T07:06:04;0.80;;;0.77;;
62709;SDS011;48770;51.624;5.886;2023-04-21T07:08:29;0.70;;;0.70;;
62709;SDS011;48770;51.624;5.886;2023-04-21T07:10:54;0.70;;;0.70;;
62709;SDS011;48770;51.624;5.886;2023-04-21T07:13:20;0.77;;;0.70;;
62709;SDS011;48770;51.624;5.886;2023-04-21T07:15:45;0.68;;;0.65;;
62709;SDS011;48770;51.624;5.886;2023-04-21T07:18:10;0.65;;;0.52;;
62709;SDS011;48770;51.624;5.886;2023-04-21T07:20:36;0.70;;;0.70;;
62709;SDS011;48770;51.624;5.886;2023-04-21T07:23:01;0.73;;;0.68;;
62709;SDS011;48770;51.624;5.886;2023-04-21T07:25:27;0.80;;;0.80;;
62709;SDS011;48770;51.624;5.886;2023-04-21T07:27:52;0.88;;;0.77;;
62709;SDS011;48770;51.624;5.886;2023-04-21T07:30:18;0.65;;;0.60;;
62709;SDS011;48770;51.624;5.886;2023-04-21T07:32:43;0.57;;;0.57;;
62709;SDS011;48770;51.624;5.886;2023-04-21T07:35:08;0.70;;;0.70;;
62709;SDS011;48770;51.624;5.886;2023-04-21T07:37:34;0.60;;;0.60;;
62709;SDS011;48770;51.624;5.886;2023-04-21T07:39:59;0.88;;;0.75;;
62709;SDS011;48770;51.624;5.886;2023-04-21T07:42:25;0.85;;;0.70;;
62709;SDS011;48770;51.624;5.886;2023-04-21T07:44:50;0.63;;;0.60;;
62709;SDS011;48770;51.624;5.886;2023-04-21T07:47:16;0.80;;;0.80;;
62709;SDS011;48770;51.624;5.886;2023-04-21T07:49:42;0.80;;;0.80;;
62709;SDS011;48770;51.624;5.886;2023-04-21T07:52:07;0.80;;;0.80;;
62709;SDS011;48770;51.624;5.886;2023-04-21T07:54:33;0.70;;;0.52;;
62709;SDS011;48770;51.624;5.886;2023-04-21T07:56:58;0.70;;;0.70;;
62709;SDS011;48770;51.624;5.886;2023-04-21T07:59:23;0.90;;;0.70;;
62709;SDS011;48770;51.624;5.886;2023-04-21T08:01:49;1.67;;;1.42;;
62709;SDS011;48770;51.624;5.886;2023-04-21T08:04:16;2.35;;;2.15;;
62709;SDS011;48770;51.624;5.886;2023-04-21T08:06:41;2.97;;;2.25;;
62709;SDS011;48770;51.624;5.886;2023-04-21T08:09:06;2.80;;;2.15;;
62709;SDS011;48770;51.624;5.886;2023-04-21T08:11:32;2.60;;;2.30;;
62709;SDS011;48770;51.624;5.886;2023-04-21T08:13:57;2.38;;;2.17;;
62709;SDS011;48770;51.624;5.886;2023-04-21T08:16:23;2.50;;;2.30;;
62709;SDS011;48770;51.624;5.886;2023-04-21T08:18:48;2.20;;;2.00;;
62709;SDS011;48770;51.624;5.886;2023-04-21T08:21:13;2.50;;;1.90;;
62709;SDS011;48770;51.624;5.886;2023-04-21T08:23:39;2.88;;;2.30;;
62709;SDS011;48770;51.624;5.886;2023-04-21T08:26:04;2.13;;;1.90;;
62709;SDS011;48770;51.624;5.886;2023-04-21T08:28:30;4.35;;;2.03;;
62709;SDS011;48770;51.624;5.886;2023-04-21T08:30:55;3.35;;;1.95;;
62709;SDS011;48770;51.624;5.886;2023-04-21T08:33:20;2.33;;;1.58;;
62709;SDS011;48770;51.624;5.886;2023-04-21T08:35:46;3.05;;;2.60;;
62709;SDS011;48770;51.624;5.886;2023-04-21T08:38:11;3.75;;;3.17;;
62709;SDS011;48770;51.624;5.886;2023-04-21T08:40:39;4.88;;;4.25;;
62709;SDS011;48770;51.624;5.886;2023-04-21T08:43:06;3.20;;;2.88;;
62709;SDS011;48770;51.624;5.886;2023-04-21T08:45:32;3.53;;;2.67;;
62709;SDS011;48770;51.624;5.886;2023-04-21T08:47:59;3.75;;;2.80;;
62709;SDS011;48770;51.624;5.886;2023-04-21T08:50:26;3.25;;;2.95;;
62709;SDS011;48770;51.624;5.886;2023-04-21T08:52:53;3.92;;;2.60;;
62709;SDS011;48770;51.624;5.886;2023-04-21T08:55:22;3.58;;;3.00;;
62709;SDS011;48770;51.624;5.886;2023-04-21T08:57:51;2.65;;;2.45;;
62709;SDS011;48770;51.624;5.886;2023-04-21T09:00:16;4.93;;;4.30;;
62709;SDS011;48770;51.624;5.886;2023-04-21T09:02:51;8.80;;;4.03;;
62709;SDS011;48770;51.624;5.886;2023-04-21T09:05:21;3.33;;;2.75;;
62709;SDS011;48770;51.624;5.886;2023-04-21T09:07:48;3.78;;;3.03;;
62709;SDS011;48770;51.624;5.886;2023-04-21T09:10:14;3.80;;;2.83;;
62709;SDS011;48770;51.624;5.886;2023-04-21T09:12:49;3.67;;;3.22;;
62709;SDS011;48770;51.624;5.886;2023-04-21T09:15:16;7.18;;;4.78;;
62709;SDS011;48770;51.624;5.886;2023-04-21T09:17:43;8.63;;;5.40;;
62709;SDS011;48770;51.624;5.886;2023-04-21T09:20:14;10.27;;;5.40;;
62709;SDS011;48770;51.624;5.886;2023-04-21T09:22:42;7.10;;;5.68;;
62709;SDS011;48770;51.624;5.886;2023-04-21T09:25:08;7.47;;;5.30;;
62709;SDS011;48770;51.624;5.886;2023-04-21T09:27:36;5.68;;;4.70;;
62709;SDS011;48770;51.624;5.886;2023-04-21T09:30:05;6.90;;;4.90;;
62709;SDS011;48770;51.624;5.886;2023-04-21T09:32:36;8.10;;;4.65;;
62709;SDS011;48770;51.624;5.886;2023-04-21T09:35:03;6.00;;;4.50;;
62709;SDS011;48770;51.624;5.886;2023-04-21T09:37:33;6.43;;;4.72;;
62709;SDS011;48770;51.624;5.886;2023-04-21T09:39:59;5.40;;;4.28;;
62709;SDS011;48770;51.624;5.886;2023-04-21T09:42:28;9.90;;;4.90;;
62709;SDS011;48770;51.624;5.886;2023-04-21T09:44:54;5.05;;;4.43;;
62709;SDS011;48770;51.624;5.886;2023-04-21T09:47:20;5.18;;;4.57;;
62709;SDS011;48770;51.624;5.886;2023-04-21T09:49:46;5.03;;;4.30;;
62709;SDS011;48770;51.624;5.886;2023-04-21T09:52:16;5.45;;;4.80;;
62709;SDS011;48770;51.624;5.886;2023-04-21T09:54:48;7.50;;;4.90;;
62709;SDS011;48770;51.624;5.886;2023-04-21T09:57:18;5.97;;;4.82;;
62709;SDS011;48770;51.624;5.886;2023-04-21T09:59:46;4.68;;;4.25;;
62709;SDS011;48770;51.624;5.886;2023-04-21T10:02:17;6.03;;;5.43;;
62709;SDS011;48770;51.624;5.886;2023-04-21T10:04:43;7.07;;;4.85;;
62709;SDS011;48770;51.624;5.886;2023-04-21T10:07:09;6.00;;;4.75;;
62709;SDS011;48770;51.624;5.886;2023-04-21T10:09:48;7.53;;;5.20;;
62709;SDS011;48770;51.624;5.886;2023-04-21T10:12:18;6.57;;;5.55;;
62709;SDS011;48770;51.624;5.886;2023-04-21T10:14:44;6.43;;;4.72;;
62709;SDS011;48770;51.624;5.886;2023-04-21T10:17:10;5.85;;;5.13;;
62709;SDS011;48770;51.624;5.886;2023-04-21T10:19:36;7.45;;;5.38;;
62709;SDS011;48770;51.624;5.886;2023-04-21T10:22:11;8.07;;;6.30;;
62709;SDS011;48770;51.624;5.886;2023-04-21T10:24:40;6.65;;;5.95;;
62709;SDS011;48770;51.624;5.886;2023-04-21T10:27:10;7.93;;;6.50;;
62709;SDS011;48770;51.624;5.886;2023-04-21T10:29:36;9.60;;;6.20;;
62709;SDS011;48770;51.624;5.886;2023-04-21T10:32:02;8.07;;;5.60;;
62709;SDS011;48770;51.624;5.886;2023-04-21T10:34:29;6.47;;;5.75;;
62709;SDS011;48770;51.624;5.886;2023-04-21T10:39:31;5.95;;;5.35;;
62709;SDS011;48770;51.624;5.886;2023-04-21T10:44:44;5.70;;;5.10;;
62709;SDS011;48770;51.624;5.886;2023-04-21T10:47:15;5.43;;;4.15;;
62709;SDS011;48770;51.624;5.886;2023-04-21T10:49:52;4.47;;;4.05;;
62709;SDS011;48770;51.624;5.886;2023-04-21T10:52:19;5.28;;;4.68;;
62709;SDS011;48770;51.624;5.886;2023-04-21T10:57:17;4.63;;;4.15;;
62709;SDS011;48770;51.624;5.886;2023-04-21T10:59:43;4.10;;;3.75;;
62709;SDS011;48770;51.624;5.886;2023-04-21T11:02:10;4.35;;;3.70;;
62709;SDS011;48770;51.624;5.886;2023-04-21T11:04:37;4.18;;;3.78;;
62709;SDS011;48770;51.624;5.886;2023-04-21T11:07:10;3.85;;;3.47;;
62709;SDS011;48770;51.624;5.886;2023-04-21T11:09:37;3.70;;;3.40;;
62709;SDS011;48770;51.624;5.886;2023-04-21T11:12:04;4.10;;;3.70;;
62709;SDS011;48770;51.624;5.886;2023-04-21T11:14:34;4.18;;;3.78;;
62709;SDS011;48770;51.624;5.886;2023-04-21T11:17:01;5.35;;;3.70;;
62709;SDS011;48770;51.624;5.886;2023-04-21T11:19:27;3.72;;;3.42;;
62709;SDS011;48770;51.624;5.886;2023-04-21T11:21:55;3.10;;;2.78;;
62709;SDS011;48770;51.624;5.886;2023-04-21T11:24:20;3.28;;;2.97;;
62709;SDS011;48770;51.624;5.886;2023-04-21T11:26:46;3.65;;;3.35;;
62709;SDS011;48770;51.624;5.886;2023-04-21T11:29:12;3.50;;;2.92;;
62709;SDS011;48770;51.624;5.886;2023-04-21T11:31:38;3.30;;;2.65;;
62709;SDS011;48770;51.624;5.886;2023-04-21T11:34:06;3.47;;;3.17;;
62709;SDS011;48770;51.624;5.886;2023-04-21T11:36:32;3.55;;;3.03;;
62709;SDS011;48770;51.624;5.886;2023-04-21T11:38:58;2.90;;;2.70;;
62709;SDS011;48770;51.624;5.886;2023-04-21T11:41:23;3.00;;;2.70;;
62709;SDS011;48770;51.624;5.886;2023-04-21T11:43:49;3.50;;;3.20;;
62709;SDS011;48770;51.624;5.886;2023-04-21T11:51:37;3.95;;;2.50;;
62709;SDS011;48770;51.624;5.886;2023-04-21T11:54:07;2.97;;;2.67;;
62709;SDS011;48770;51.624;5.886;2023-04-21T11:56:35;3.15;;;2.85;;
62709;SDS011;48770;51.624;5.886;2023-04-21T11:59:05;2.85;;;2.65;;
62709;SDS011;48770;51.624;5.886;2023-04-21T12:01:41;3.05;;;2.75;;
62709;SDS011;48770;51.624;5.886;2023-04-21T12:04:14;3.25;;;2.67;;
62709;SDS011;48770;51.624;5.886;2023-04-21T12:06:41;3.05;;;2.60;;
62709;SDS011;48770;51.624;5.886;2023-04-21T12:09:07;3.03;;;2.72;;
62709;SDS011;48770;51.624;5.886;2023-04-21T12:11:32;3.38;;;2.67;;
62709;SDS011;48770;51.624;5.886;2023-04-21T12:13:58;2.50;;;2.30;;
62709;SDS011;48770;51.624;5.886;2023-04-21T12:16:25;2.58;;;2.38;;
62709;SDS011;48770;51.624;5.886;2023-04-21T12:18:52;2.90;;;2.65;;
62709;SDS011;48770;51.624;5.886;2023-04-21T12:21:18;2.60;;;2.40;;
62709;SDS011;48770;51.624;5.886;2023-04-21T12:23:44;3.00;;;2.38;;
62709;SDS011;48770;51.624;5.886;2023-04-21T12:26:09;2.80;;;2.20;;
62709;SDS011;48770;51.624;5.886;2023-04-21T12:28:35;2.85;;;2.50;;
62709;SDS011;48770;51.624;5.886;2023-04-21T12:31:01;2.33;;;2.13;;
62709;SDS011;48770;51.624;5.886;2023-04-21T12:33:26;2.60;;;2.40;;
62709;SDS011;48770;51.624;5.886;2023-04-21T12:35:51;2.60;;;2.40;;
62709;SDS011;48770;51.624;5.886;2023-04-21T12:38:17;2.20;;;2.00;;
62709;SDS011;48770;51.624;5.886;2023-04-21T12:40:42;2.17;;;1.95;;
62709;SDS011;48770;51.624;5.886;2023-04-21T12:43:07;2.40;;;2.20;;
62709;SDS011;48770;51.624;5.886;2023-04-21T12:45:33;2.75;;;2.55;;
62709;SDS011;48770;51.624;5.886;2023-04-21T12:47:58;2.08;;;1.88;;
62709;SDS011;48770;51.624;5.886;2023-04-21T12:50:23;2.33;;;1.90;;
62709;SDS011;48770;51.624;5.886;2023-04-21T12:52:49;2.00;;;1.80;;
62709;SDS011;48770;51.624;5.886;2023-04-21T12:55:16;2.20;;;2.00;;
62709;SDS011;48770;51.624;5.886;2023-04-21T12:57:42;2.20;;;2.00;;
62709;SDS011;48770;51.624;5.886;2023-04-21T13:00:08;2.15;;;1.92;;
62709;SDS011;48770;51.624;5.886;2023-04-21T13:02:36;2.15;;;1.75;;
62709;SDS011;48770;51.624;5.886;2023-04-21T13:05:02;2.35;;;2.15;;
62709;SDS011;48770;51.624;5.886;2023-04-21T13:07:29;2.67;;;2.00;;
62709;SDS011;48770;51.624;5.886;2023-04-21T13:09:55;1.80;;;1.70;;
62709;SDS011;48770;51.624;5.886;2023-04-21T13:12:21;3.08;;;1.90;;
62709;SDS011;48770;51.624;5.886;2023-04-21T13:14:46;2.13;;;1.92;;
62709;SDS011;48770;51.624;5.886;2023-04-21T13:17:12;2.17;;;1.98;;
62709;SDS011;48770;51.624;5.886;2023-04-21T13:19:39;1.90;;;1.80;;
62709;SDS011;48770;51.624;5.886;2023-04-21T13:22:04;1.80;;;1.70;;
62709;SDS011;48770;51.624;5.886;2023-04-21T13:24:30;1.75;;;1.65;;
62709;SDS011;48770;51.624;5.886;2023-04-21T13:26:55;1.80;;;1.70;;
62709;SDS011;48770;51.624;5.886;2023-04-21T13:29:22;1.80;;;1.70;;
62709;SDS011;48770;51.624;5.886;2023-04-21T13:31:47;1.63;;;1.52;;
62709;SDS011;48770;51.624;5.886;2023-04-21T13:34:13;2.00;;;1.90;;
62709;SDS011;48770;51.624;5.886;2023-04-21T13:36:38;1.80;;;1.70;;
62709;SDS011;48770;51.624;5.886;2023-04-21T13:39:03;2.22;;;1.60;;
62709;SDS011;48770;51.624;5.886;2023-04-21T13:41:32;2.00;;;1.70;;
62709;SDS011;48770;51.624;5.886;2023-04-21T13:43:58;1.63;;;1.52;;
62709;SDS011;48770;51.624;5.886;2023-04-21T13:46:23;2.20;;;2.00;;
62709;SDS011;48770;51.624;5.886;2023-04-21T13:48:48;1.75;;;1.48;;
62709;SDS011;48770;51.624;5.886;2023-04-21T13:51:15;1.73;;;1.63;;
62709;SDS011;48770;51.624;5.886;2023-04-21T13:53:41;1.55;;;1.40;;
62709;SDS011;48770;51.624;5.886;2023-04-21T13:56:07;1.60;;;1.42;;
62709;SDS011;48770;51.624;5.886;2023-04-21T13:58:34;1.83;;;1.65;;
62709;SDS011;48770;51.624;5.886;2023-04-21T14:00:59;1.77;;;1.67;;
62709;SDS011;48770;51.624;5.886;2023-04-21T14:03:25;1.48;;;1.33;;
62709;SDS011;48770;51.624;5.886;2023-04-21T14:05:50;1.50;;;1.40;;
62709;SDS011;48770;51.624;5.886;2023-04-21T14:08:15;1.50;;;1.40;;
62709;SDS011;48770;51.624;5.886;2023-04-21T14:10:41;1.50;;;1.40;;
62709;SDS011;48770;51.624;5.886;2023-04-21T14:13:06;1.60;;;1.50;;
62709;SDS011;48770;51.624;5.886;2023-04-21T14:15:31;1.67;;;1.58;;
62709;SDS011;48770;51.624;5.886;2023-04-21T14:17:57;1.63;;;1.40;;
62709;SDS011;48770;51.624;5.886;2023-04-21T14:20:22;1.80;;;1.70;;
62709;SDS011;48770;51.624;5.886;2023-04-21T14:22:48;1.90;;;1.70;;
62709;SDS011;48770;51.624;5.886;2023-04-21T14:25:13;1.50;;;1.40;;
62709;SDS011;48770;51.624;5.886;2023-04-21T14:27:38;2.10;;;1.73;;
62709;SDS011;48770;51.624;5.886;2023-04-21T14:30:04;1.60;;;1.50;;
62709;SDS011;48770;51.624;5.886;2023-04-21T14:32:30;1.70;;;1.48;;
62709;SDS011;48770;51.624;5.886;2023-04-21T14:34:55;1.33;;;1.23;;
62709;SDS011;48770;51.624;5.886;2023-04-21T14:37:22;1.40;;;1.20;;
62709;SDS011;48770;51.624;5.886;2023-04-21T14:39:48;1.60;;;1.50;;
62709;SDS011;48770;51.624;5.886;2023-04-21T14:42:13;1.60;;;1.50;;
62709;SDS011;48770;51.624;5.886;2023-04-21T14:44:39;1.40;;;1.30;;
62709;SDS011;48770;51.624;5.886;2023-04-21T14:47:04;1.98;;;1.40;;
62709;SDS011;48770;51.624;5.886;2023-04-21T14:49:30;1.20;;;1.10;;
62709;SDS011;48770;51.624;5.886;2023-04-21T14:51:56;1.20;;;1.00;;
62709;SDS011;48770;51.624;5.886;2023-04-21T14:54:21;1.75;;;1.60;;